createdAt,value
2024-04-06T00:00:08.528Z,16.24
2024-04-06T00:01:08.508Z,16.26
2024-04-06T00:02:08.491Z,16.26
2024-04-06T00:03:08.475Z,16.23
2024-04-06T00:04:08.482Z,16.23
2024-04-06T00:05:08.447Z,16.21
2024-04-06T00:06:08.441Z,16.17
2024-04-06T00:07:08.414Z,16.17
2024-04-06T00:08:16.456Z,16.15
2024-04-06T00:09:09.397Z,16.02
2024-04-06T00:10:08.386Z,16.00
2024-04-06T00:11:08.389Z,15.98
2024-04-06T00:12:08.352Z,16.00
2024-04-06T00:13:08.344Z,16.02
2024-04-06T00:14:08.328Z,15.97
2024-04-06T00:15:08.315Z,15.94
2024-04-06T00:16:08.315Z,15.91
2024-04-06T00:17:08.295Z,15.88
2024-04-06T00:18:08.279Z,15.88
2024-04-06T00:19:08.269Z,15.92
2024-04-06T00:20:08.253Z,15.98
2024-04-06T00:21:08.264Z,16.00
2024-04-06T00:22:08.241Z,16.01
2024-04-06T00:23:08.209Z,16.05
2024-04-06T00:24:08.192Z,16.08
2024-04-06T00:25:08.178Z,16.05
2024-04-06T00:26:08.200Z,16.10
2024-04-06T00:27:08.168Z,16.08
2024-04-06T00:28:08.163Z,16.09
2024-04-06T00:29:08.132Z,16.09
2024-04-06T00:30:08.117Z,16.08
2024-04-06T00:31:08.115Z,16.08
2024-04-06T00:32:08.097Z,16.08
2024-04-06T00:33:08.089Z,15.94
2024-04-06T00:34:08.089Z,15.90
2024-04-06T00:35:08.061Z,15.88
2024-04-06T00:36:08.052Z,15.86
2024-04-06T00:37:08.020Z,15.75
2024-04-06T00:38:08.005Z,15.70
2024-04-06T00:39:08.000Z,15.73
2024-04-06T00:40:08.004Z,15.73
2024-04-06T00:41:07.984Z,15.75
2024-04-06T00:42:07.963Z,15.72
2024-04-06T00:43:07.961Z,15.73
2024-04-06T00:44:07.937Z,15.70
2024-04-06T00:45:07.935Z,15.72
2024-04-06T00:46:07.906Z,15.70
2024-04-06T00:47:07.895Z,15.67
2024-04-06T00:48:07.878Z,15.68
2024-04-06T00:49:07.868Z,15.67
2024-04-06T00:50:07.871Z,15.64
2024-04-06T00:51:07.838Z,15.49
2024-04-06T00:52:07.827Z,15.40
2024-04-06T00:53:07.824Z,15.36
2024-04-06T00:54:07.810Z,15.39
2024-04-06T00:55:07.808Z,15.39
2024-04-06T00:56:07.781Z,15.37
2024-04-06T00:57:07.760Z,15.31
2024-04-06T00:58:07.747Z,15.25
2024-04-06T00:59:07.742Z,15.22
2024-04-06T01:00:07.739Z,15.22
2024-04-06T01:01:07.706Z,15.24
2024-04-06T01:02:07.693Z,15.22
2024-04-06T01:03:07.679Z,15.17
2024-04-06T01:04:07.673Z,15.15
2024-04-06T01:05:07.677Z,15.19
2024-04-06T01:06:07.643Z,15.19
2024-04-06T01:07:07.632Z,15.24
2024-04-06T01:08:07.619Z,15.25
2024-04-06T01:09:07.616Z,15.15
2024-04-06T01:10:07.607Z,15.15
2024-04-06T01:11:07.601Z,15.17
2024-04-06T01:12:07.564Z,15.17
2024-04-06T01:13:07.547Z,15.17
2024-04-06T01:14:07.549Z,15.22
2024-04-06T01:15:07.533Z,15.29
2024-04-06T01:16:07.516Z,15.29
2024-04-06T01:17:07.494Z,15.33
2024-04-06T01:18:07.481Z,15.36
2024-04-06T01:19:07.482Z,15.29
2024-04-06T01:20:07.460Z,15.29
2024-04-06T01:21:07.450Z,15.28
2024-04-06T01:22:07.431Z,15.27
2024-04-06T01:23:07.416Z,15.24
2024-04-06T01:24:07.426Z,15.25
2024-04-06T01:25:07.399Z,15.27
2024-04-06T01:26:07.379Z,15.31
2024-04-06T01:27:07.375Z,15.28
2024-04-06T01:28:07.359Z,15.31
2024-04-06T01:29:07.376Z,15.33
2024-04-06T01:30:07.332Z,15.31
2024-04-06T01:31:07.335Z,15.31
2024-04-06T01:32:07.302Z,15.31
2024-04-06T01:33:07.316Z,15.33
2024-04-06T01:34:07.299Z,15.28
2024-04-06T01:35:07.263Z,15.28
2024-04-06T01:36:07.247Z,15.29
2024-04-06T01:37:07.232Z,15.27
2024-04-06T01:38:07.229Z,15.25
2024-04-06T01:39:07.219Z,15.29
2024-04-06T01:40:07.198Z,15.35
2024-04-06T01:41:07.181Z,15.35
2024-04-06T01:42:07.171Z,15.37
2024-04-06T01:43:07.169Z,15.40
2024-04-06T01:44:07.157Z,15.40
2024-04-06T01:45:07.132Z,15.36
2024-04-06T01:46:07.121Z,15.37
2024-04-06T01:47:07.132Z,15.29
2024-04-06T01:48:07.109Z,15.31
2024-04-06T01:49:07.081Z,15.25
2024-04-06T01:50:07.065Z,15.18
2024-04-06T01:51:07.051Z,15.14
2024-04-06T01:52:07.039Z,15.07
2024-04-06T01:53:07.038Z,15.06
2024-04-06T01:54:07.021Z,15.06
2024-04-06T01:55:07.002Z,15.06
2024-04-06T01:56:06.986Z,15.06
2024-04-06T01:57:06.977Z,15.03
2024-04-06T01:58:06.971Z,15.04
2024-04-06T01:59:06.946Z,15.09
2024-04-06T02:00:06.937Z,15.07
2024-04-06T02:01:06.919Z,15.06
2024-04-06T02:02:06.921Z,15.03
2024-04-06T02:03:06.934Z,15.04
2024-04-06T02:04:06.881Z,15.04
2024-04-06T02:05:06.873Z,15.09
2024-04-06T02:06:06.854Z,15.07
2024-04-06T02:07:06.950Z,15.14
2024-04-06T02:08:06.847Z,15.14
2024-04-06T02:09:06.814Z,15.09
2024-04-06T02:10:06.797Z,15.10
2024-04-06T02:11:06.786Z,15.15
2024-04-06T02:12:06.794Z,15.17
2024-04-06T02:13:06.762Z,15.17
2024-04-06T02:14:06.750Z,15.18
2024-04-06T02:15:06.733Z,15.18
2024-04-06T02:16:06.740Z,15.17
2024-04-06T02:17:06.753Z,15.19
2024-04-06T02:18:06.698Z,15.21
2024-04-06T02:19:06.702Z,15.19
2024-04-06T02:20:06.671Z,15.19
2024-04-06T02:21:06.697Z,15.14
2024-04-06T02:22:06.660Z,15.14
2024-04-06T02:23:06.635Z,15.14
2024-04-06T02:24:06.619Z,15.09
2024-04-06T02:25:06.606Z,15.09
2024-04-06T02:26:06.610Z,15.09
2024-04-06T02:27:06.581Z,15.07
2024-04-06T02:28:06.562Z,15.10
2024-04-06T02:29:06.554Z,15.07
2024-04-06T02:30:06.535Z,15.04
2024-04-06T02:31:06.542Z,15.07
2024-04-06T02:32:06.509Z,15.02
2024-04-06T02:33:06.499Z,15.02
2024-04-06T02:34:06.490Z,14.99
2024-04-06T02:35:06.496Z,14.96
2024-04-06T02:36:06.487Z,14.92
2024-04-06T02:37:06.446Z,14.91
2024-04-06T02:38:06.431Z,14.82
2024-04-06T02:39:06.420Z,14.82
2024-04-06T02:40:06.427Z,14.73
2024-04-06T02:41:06.395Z,14.66
2024-04-06T02:42:06.377Z,14.70
2024-04-06T02:43:06.368Z,14.60
2024-04-06T02:44:06.350Z,14.58
2024-04-06T02:45:06.356Z,14.55
2024-04-06T02:46:06.323Z,14.54
2024-04-06T02:47:06.309Z,14.51
2024-04-06T02:48:06.299Z,14.45
2024-04-06T02:49:06.285Z,14.41
2024-04-06T02:50:06.293Z,14.40
2024-04-06T02:51:06.277Z,14.40
2024-04-06T02:52:06.247Z,14.35
2024-04-06T02:53:06.236Z,14.33
2024-04-06T02:54:06.220Z,14.33
2024-04-06T02:55:06.223Z,14.30
2024-04-06T02:56:06.190Z,14.22
2024-04-06T02:57:06.174Z,14.20
2024-04-06T02:58:06.165Z,14.15
2024-04-06T02:59:06.151Z,14.15
2024-04-06T03:00:06.158Z,14.10
2024-04-06T03:01:06.132Z,14.03
2024-04-06T03:02:06.105Z,13.96
2024-04-06T03:03:06.110Z,13.93
2024-04-06T03:04:06.107Z,13.92
2024-04-06T03:05:06.095Z,13.90
2024-04-06T03:06:06.059Z,13.86
2024-04-06T03:07:06.148Z,13.86
2024-04-06T03:08:06.041Z,13.81
2024-04-06T03:09:06.036Z,13.72
2024-04-06T03:10:06.022Z,13.70
2024-04-06T03:11:05.996Z,13.65
2024-04-06T03:12:05.976Z,13.57
2024-04-06T03:13:05.968Z,13.56
2024-04-06T03:14:05.978Z,13.52
2024-04-06T03:15:05.938Z,13.46
2024-04-06T03:16:05.944Z,13.41
2024-04-06T03:17:05.919Z,13.35
2024-04-06T03:18:05.897Z,13.22
2024-04-06T03:19:05.899Z,13.18
2024-04-06T03:20:05.883Z,13.15
2024-04-06T03:21:05.864Z,13.19
2024-04-06T03:22:05.851Z,13.19
2024-04-06T03:23:05.855Z,13.18
2024-04-06T03:24:05.838Z,13.28
2024-04-06T03:25:05.813Z,13.27
2024-04-06T03:26:05.793Z,13.30
2024-04-06T03:27:05.791Z,13.31
2024-04-06T03:28:05.763Z,13.37
2024-04-06T03:29:05.770Z,13.37
2024-04-06T03:30:05.737Z,13.37
2024-04-06T03:31:05.730Z,13.41
2024-04-06T03:32:05.714Z,13.42
2024-04-06T03:33:05.716Z,13.47
2024-04-06T03:34:05.709Z,13.53
2024-04-06T03:35:05.674Z,13.47
2024-04-06T03:36:05.665Z,13.46
2024-04-06T03:37:05.649Z,13.52
2024-04-06T03:38:05.659Z,13.52
2024-04-06T03:39:05.659Z,13.53
2024-04-06T03:40:05.616Z,13.57
2024-04-06T03:41:05.598Z,13.56
2024-04-06T03:42:05.576Z,13.59
2024-04-06T03:43:05.585Z,13.53
2024-04-06T03:44:05.554Z,13.56
2024-04-06T03:45:05.550Z,13.65
2024-04-06T03:46:05.530Z,13.78
2024-04-06T03:47:05.511Z,13.89
2024-04-06T03:48:05.517Z,14.05
2024-04-06T03:49:05.499Z,14.05
2024-04-06T03:50:05.482Z,14.05
2024-04-06T03:51:05.465Z,14.07
2024-04-06T03:52:05.463Z,14.04
2024-04-06T03:53:05.455Z,13.97
2024-04-06T03:54:05.423Z,13.95
2024-04-06T03:55:05.421Z,13.92
2024-04-06T03:56:05.399Z,13.89
2024-04-06T03:57:05.402Z,13.87
2024-04-06T03:58:05.367Z,13.85
2024-04-06T03:59:05.370Z,13.77
2024-04-06T04:00:05.357Z,13.72
2024-04-06T04:01:05.332Z,13.68
2024-04-06T04:02:05.339Z,13.63
2024-04-06T04:03:05.304Z,13.63
2024-04-06T04:04:05.287Z,13.62
2024-04-06T04:05:05.279Z,13.57
2024-04-06T04:06:05.264Z,13.54
2024-04-06T04:07:05.270Z,13.47
2024-04-06T04:08:05.239Z,13.46
2024-04-06T04:09:05.222Z,13.41
2024-04-06T04:10:05.209Z,13.41
2024-04-06T04:11:05.227Z,13.38
2024-04-06T04:12:05.199Z,13.38
2024-04-06T04:13:05.170Z,13.33
2024-04-06T04:14:05.157Z,13.27
2024-04-06T04:15:05.153Z,13.31
2024-04-06T04:16:05.151Z,13.33
2024-04-06T04:17:05.119Z,13.39
2024-04-06T04:18:05.105Z,13.38
2024-04-06T04:19:05.107Z,13.30
2024-04-06T04:20:05.074Z,13.30
2024-04-06T04:21:05.079Z,13.28
2024-04-06T04:22:05.072Z,13.35
2024-04-06T04:23:05.036Z,13.33
2024-04-06T04:24:05.028Z,13.31
2024-04-06T04:25:05.025Z,13.33
2024-04-06T04:26:05.016Z,13.37
2024-04-06T04:27:05.001Z,13.35
2024-04-06T04:28:04.976Z,13.41
2024-04-06T04:29:04.957Z,13.41
2024-04-06T04:30:04.958Z,13.37
2024-04-06T04:31:04.934Z,13.30
2024-04-06T04:32:04.919Z,13.33
2024-04-06T04:33:04.927Z,13.31
2024-04-06T04:34:04.900Z,13.16
2024-04-06T04:35:04.904Z,13.09
2024-04-06T04:36:04.874Z,13.04
2024-04-06T04:37:04.855Z,13.04
2024-04-06T04:38:04.843Z,13.03
2024-04-06T04:39:04.852Z,13.04
2024-04-06T04:40:04.843Z,13.05
2024-04-06T04:41:04.808Z,13.04
2024-04-06T04:42:04.786Z,13.04
2024-04-06T04:43:04.785Z,13.03
2024-04-06T04:44:15.242Z,13.04
2024-04-06T04:45:04.772Z,13.12
2024-04-06T04:46:04.737Z,13.09
2024-04-06T04:47:04.723Z,13.08
2024-04-06T04:48:04.708Z,13.01
2024-04-06T04:49:04.723Z,13.03
2024-04-06T04:50:04.680Z,13.15
2024-04-06T04:51:04.673Z,13.19
2024-04-06T04:52:04.657Z,13.25
2024-04-06T04:53:04.647Z,13.23
2024-04-06T04:54:04.663Z,13.22
2024-04-06T04:55:04.620Z,13.20
2024-04-06T04:56:04.606Z,13.20
2024-04-06T04:57:04.595Z,13.38
2024-04-06T04:58:04.575Z,13.60
2024-04-06T04:59:04.587Z,13.59
2024-04-06T05:00:04.557Z,13.53
2024-04-06T05:01:04.540Z,13.41
2024-04-06T05:02:04.539Z,13.30
2024-04-06T05:03:04.528Z,13.35
2024-04-06T05:04:04.514Z,13.38
2024-04-06T05:05:04.480Z,13.47
2024-04-06T05:06:04.471Z,13.56
2024-04-06T05:07:04.461Z,13.57
2024-04-06T05:08:04.466Z,13.62
2024-04-06T05:09:04.428Z,13.68
2024-04-06T05:10:04.416Z,13.72
2024-04-06T05:11:04.436Z,13.60
2024-04-06T05:12:04.390Z,13.67
2024-04-06T05:13:04.395Z,13.74
2024-04-06T05:14:04.366Z,13.79
2024-04-06T05:15:04.360Z,13.83
2024-04-06T05:16:04.339Z,13.85
2024-04-06T05:17:04.344Z,14.04
2024-04-06T05:18:04.327Z,14.50
2024-04-06T05:19:04.299Z,14.72
2024-04-06T05:20:04.286Z,14.92
2024-04-06T05:21:04.272Z,15.25
2024-04-06T05:22:04.275Z,15.42
2024-04-06T05:23:04.260Z,15.84
2024-04-06T05:24:04.247Z,16.16
2024-04-06T05:25:04.220Z,16.36
2024-04-06T05:26:04.205Z,16.51
2024-04-06T05:27:04.211Z,16.56
2024-04-06T05:28:04.274Z,16.76
2024-04-06T05:29:04.161Z,16.78
2024-04-06T05:30:04.181Z,16.99
2024-04-06T05:31:04.164Z,17.23
2024-04-06T05:32:04.152Z,17.33
2024-04-06T05:33:04.120Z,17.44
2024-04-06T05:34:04.114Z,17.49
2024-04-06T05:35:04.112Z,17.57
2024-04-06T05:36:04.101Z,17.72
2024-04-06T05:37:04.092Z,18.03
2024-04-06T05:38:04.051Z,18.38
2024-04-06T05:39:04.035Z,18.40
2024-04-06T05:40:04.026Z,18.65
2024-04-06T05:41:04.030Z,18.47
2024-04-06T05:42:04.000Z,18.40
2024-04-06T05:43:04.002Z,18.66
2024-04-06T05:44:05.586Z,18.43
2024-04-06T05:45:03.963Z,18.37
2024-04-06T05:46:03.971Z,18.41
2024-04-06T05:47:03.961Z,18.45
2024-04-06T05:48:03.914Z,18.65
2024-04-06T05:49:03.926Z,18.70
2024-04-06T05:50:03.911Z,18.77
2024-04-06T05:51:03.893Z,18.74
2024-04-06T05:52:03.866Z,18.88
2024-04-06T05:53:03.855Z,18.95
2024-04-06T05:54:03.834Z,19.49
2024-04-06T05:55:03.842Z,19.82
2024-04-06T05:56:03.819Z,20.14
2024-04-06T05:57:03.792Z,20.24
2024-04-06T05:58:03.778Z,20.40
2024-04-06T05:59:03.784Z,20.58
2024-04-06T06:00:03.792Z,20.96
2024-04-06T06:01:03.745Z,21.17
2024-04-06T06:02:03.733Z,21.30
2024-04-06T06:03:03.729Z,21.39
2024-04-06T06:04:03.703Z,21.45
2024-04-06T06:05:03.708Z,21.60
2024-04-06T06:06:03.676Z,21.79
2024-04-06T06:07:03.669Z,21.95
2024-04-06T06:08:03.649Z,22.11
2024-04-06T06:09:03.638Z,22.30
2024-04-06T06:10:03.644Z,22.38
2024-04-06T06:11:03.609Z,22.41
2024-04-06T06:12:03.597Z,22.48
2024-04-06T06:13:03.577Z,22.63
2024-04-06T06:14:03.598Z,22.72
2024-04-06T06:15:03.575Z,22.60
2024-04-06T06:16:03.540Z,22.72
2024-04-06T06:17:03.528Z,22.69
2024-04-06T06:18:03.729Z,22.54
2024-04-06T06:19:03.528Z,22.17
2024-04-06T06:20:03.489Z,21.76
2024-04-06T06:21:03.469Z,22.18
2024-04-06T06:22:03.460Z,22.32
2024-04-06T06:23:03.439Z,21.73
2024-04-06T06:24:03.445Z,21.17
2024-04-06T06:25:03.423Z,20.78
2024-04-06T06:26:03.404Z,20.90
2024-04-06T06:27:03.453Z,21.48
2024-04-06T06:28:03.379Z,21.77
2024-04-06T06:29:03.378Z,22.15
2024-04-06T06:30:03.353Z,22.70
2024-04-06T06:31:03.335Z,22.57
2024-04-06T06:32:03.326Z,22.22
2024-04-06T06:33:03.324Z,21.55
2024-04-06T06:34:03.325Z,21.35
2024-04-06T06:35:03.312Z,21.15
2024-04-06T06:38:03.261Z,20.32
2024-04-06T06:41:03.208Z,19.24
2024-04-06T06:42:03.199Z,19.07
2024-04-06T06:43:03.190Z,19.51
2024-04-06T06:44:03.164Z,19.94
2024-04-06T06:45:03.150Z,20.41
2024-04-06T06:46:03.132Z,20.70
2024-04-06T06:47:03.137Z,20.70
2024-04-06T06:48:03.125Z,20.41
2024-04-06T06:49:03.090Z,20.37
2024-04-06T06:50:03.095Z,20.26
2024-04-06T06:51:03.081Z,20.09
2024-04-06T06:52:03.070Z,20.13
2024-04-06T06:53:03.039Z,20.13
2024-04-06T06:54:03.045Z,20.04
2024-04-06T06:55:03.019Z,20.22
2024-04-06T06:56:03.002Z,20.50
2024-04-06T06:57:02.998Z,20.69
2024-04-06T06:58:03.004Z,20.82
2024-04-06T06:59:02.955Z,20.66
2024-04-06T07:01:02.945Z,20.74
2024-04-06T07:02:02.935Z,20.85
2024-04-06T07:03:02.933Z,20.87
2024-04-06T07:04:02.898Z,20.60
2024-04-06T07:05:02.884Z,20.66
2024-04-06T07:06:02.891Z,20.52
2024-04-06T07:07:08.274Z,20.39
2024-04-06T07:08:03.838Z,20.43
2024-04-06T07:09:03.224Z,20.37
2024-04-06T07:10:02.832Z,20.31
2024-04-06T07:11:02.842Z,20.10
2024-04-06T07:12:02.789Z,20.09
2024-04-06T07:13:02.779Z,20.25
2024-04-06T07:14:02.767Z,20.52
2024-04-06T07:15:02.752Z,20.60
2024-04-06T07:16:02.755Z,20.88
2024-04-06T07:17:02.721Z,20.72
2024-04-06T07:18:02.729Z,20.55
2024-04-06T07:19:02.694Z,20.77
2024-04-06T07:20:02.703Z,20.99
2024-04-06T07:21:02.690Z,20.82
2024-04-06T07:22:02.679Z,20.60
2024-04-06T07:23:02.652Z,20.47
2024-04-06T07:24:02.632Z,20.69
2024-04-06T07:25:02.667Z,20.84
2024-04-06T07:26:02.621Z,20.75
2024-04-06T07:27:02.588Z,20.78
2024-04-06T07:28:02.573Z,20.32
2024-04-06T07:29:02.564Z,20.21
2024-04-06T07:30:02.572Z,20.04
2024-04-06T07:31:02.538Z,20.13
2024-04-06T07:32:02.535Z,20.26
2024-04-06T07:33:02.508Z,20.24
2024-04-06T07:34:02.505Z,20.09
2024-04-06T07:35:02.496Z,19.96
2024-04-06T07:36:02.471Z,20.02
2024-04-06T07:37:02.457Z,20.10
2024-04-06T07:38:02.448Z,20.18
2024-04-06T07:40:02.436Z,20.03
2024-04-06T07:41:02.406Z,20.10
2024-04-06T07:42:02.412Z,20.18
2024-04-06T07:43:02.386Z,20.18
2024-04-06T07:44:02.391Z,20.11
2024-04-06T07:45:02.375Z,20.18
2024-04-06T07:46:02.339Z,20.34
2024-04-06T07:47:02.322Z,20.43
2024-04-06T07:48:02.326Z,20.44
2024-04-06T07:49:02.314Z,20.19
2024-04-06T07:50:02.290Z,20.18
2024-04-06T07:51:02.277Z,20.24
2024-04-06T07:52:02.298Z,20.13
2024-04-06T07:53:02.261Z,20.13
2024-04-06T07:54:02.262Z,20.04
2024-04-06T07:55:02.230Z,20.22
2024-04-06T07:56:02.209Z,20.26
2024-04-06T07:57:02.196Z,20.34
2024-04-06T07:58:02.194Z,20.10
2024-04-06T07:59:02.188Z,20.10
2024-04-06T08:00:02.152Z,20.21
2024-04-06T08:01:02.136Z,20.21
2024-04-06T08:02:02.126Z,20.41
2024-04-06T08:03:02.126Z,20.32
2024-04-06T08:04:02.107Z,20.24
2024-04-06T08:05:02.099Z,20.24
2024-04-06T08:06:02.071Z,20.50
2024-04-06T08:07:04.529Z,20.88
2024-04-06T08:08:02.062Z,21.42
2024-04-06T08:09:02.032Z,21.67
2024-04-06T08:10:02.034Z,22.15
2024-04-06T08:11:02.012Z,22.57
2024-04-06T08:12:02.021Z,22.35
2024-04-06T08:13:01.994Z,22.25
2024-04-06T08:14:13.558Z,22.13
2024-04-06T08:15:01.960Z,22.45
2024-04-06T08:16:01.955Z,22.73
2024-04-06T08:17:01.948Z,22.70
2024-04-06T08:18:01.936Z,22.15
2024-04-06T08:19:01.902Z,21.95
2024-04-06T08:20:01.910Z,21.98
2024-04-06T08:21:01.875Z,22.18
2024-04-06T08:22:01.891Z,22.48
2024-04-06T08:23:01.854Z,23.00
2024-04-06T08:24:01.842Z,22.75
2024-04-06T08:25:01.821Z,22.88
2024-04-06T08:26:01.814Z,23.09
2024-04-06T08:27:01.822Z,23.23
2024-04-06T08:28:01.784Z,23.21
2024-04-06T08:29:01.771Z,22.76
2024-04-06T08:30:01.759Z,22.96
2024-04-06T08:31:01.767Z,22.76
2024-04-06T08:32:01.743Z,22.76
2024-04-06T08:33:02.714Z,22.75
2024-04-06T08:34:01.703Z,22.80
2024-04-06T08:35:01.698Z,22.60
2024-04-06T08:36:01.699Z,22.48
2024-04-06T08:37:01.661Z,23.31
2024-04-06T08:38:01.649Z,23.50
2024-04-06T08:39:01.645Z,23.46
2024-04-06T08:40:01.625Z,23.54
2024-04-06T08:41:01.623Z,23.59
2024-04-06T08:42:01.599Z,23.20
2024-04-06T08:43:01.598Z,23.09
2024-04-06T08:44:01.575Z,22.84
2024-04-06T08:45:01.565Z,22.90
2024-04-06T08:46:01.564Z,22.91
2024-04-06T08:47:01.530Z,23.48
2024-04-06T08:48:01.521Z,23.65
2024-04-06T08:49:01.507Z,23.44
2024-04-06T08:50:01.512Z,23.95
2024-04-06T08:51:01.494Z,24.05
2024-04-06T08:52:01.472Z,24.08
2024-04-06T08:53:01.457Z,24.42
2024-04-06T08:54:01.442Z,24.77
2024-04-06T08:55:01.470Z,24.98
2024-04-06T08:56:01.417Z,24.86
2024-04-06T08:57:01.397Z,24.70
2024-04-06T08:58:01.390Z,24.89
2024-04-06T08:59:01.451Z,25.35
2024-04-06T09:00:01.407Z,25.63
2024-04-06T09:01:01.387Z,25.75
2024-04-06T09:02:01.407Z,26.36
2024-04-06T09:03:01.408Z,26.56
2024-04-06T09:04:01.314Z,26.75
2024-04-06T09:05:01.314Z,25.81
2024-04-06T09:06:01.296Z,25.11
2024-04-06T09:07:01.272Z,24.98
2024-04-06T09:08:01.261Z,24.78
2024-04-06T09:09:01.250Z,24.30
2024-04-06T09:10:01.258Z,24.77
2024-04-06T09:11:01.241Z,24.88
2024-04-06T09:12:01.217Z,25.18
2024-04-06T09:13:01.199Z,25.14
2024-04-06T09:14:01.190Z,24.73
2024-04-06T09:15:01.251Z,24.60
2024-04-06T09:16:01.160Z,25.06
2024-04-06T09:17:01.145Z,25.50
2024-04-06T09:18:01.168Z,25.87
2024-04-06T09:19:01.157Z,25.88
2024-04-06T09:20:01.124Z,25.84
2024-04-06T09:21:01.104Z,25.32
2024-04-06T09:22:01.093Z,25.28
2024-04-06T09:23:01.065Z,25.38
2024-04-06T09:24:01.074Z,24.93
2024-04-06T09:25:01.077Z,25.08
2024-04-06T09:26:01.030Z,25.25
2024-04-06T09:27:01.022Z,25.95
2024-04-06T09:28:01.007Z,26.34
2024-04-06T09:29:01.010Z,26.15
2024-04-06T09:30:00.979Z,25.40
2024-04-06T09:31:00.983Z,25.03
2024-04-06T09:32:00.965Z,25.21
2024-04-06T09:33:00.943Z,25.66
2024-04-06T09:34:00.970Z,26.03
2024-04-06T09:35:00.918Z,25.38
2024-04-06T09:36:00.915Z,25.18
2024-04-06T09:37:00.902Z,25.50
2024-04-06T09:38:00.891Z,25.90
2024-04-06T09:39:00.896Z,26.52
2024-04-06T09:40:00.878Z,26.80
2024-04-06T09:41:00.873Z,26.75
2024-04-06T09:42:00.852Z,27.02
2024-04-06T09:43:00.849Z,26.68
2024-04-06T09:44:00.855Z,26.47
2024-04-06T09:45:00.797Z,26.43
2024-04-06T09:46:00.804Z,26.05
2024-04-06T09:47:00.778Z,25.70
2024-04-06T09:48:00.786Z,26.09
2024-04-06T09:49:00.771Z,26.29
2024-04-06T09:50:00.762Z,26.31
2024-04-06T09:51:00.726Z,26.21
2024-04-06T09:52:00.721Z,26.53
2024-04-06T09:53:00.729Z,26.96
2024-04-06T09:54:00.690Z,27.20
2024-04-06T09:55:00.673Z,26.92
2024-04-06T09:56:00.664Z,27.00
2024-04-06T09:57:00.664Z,26.63
2024-04-06T09:58:00.654Z,26.29
2024-04-06T09:59:00.623Z,26.02
2024-04-06T10:00:00.634Z,25.83
2024-04-06T10:01:00.599Z,26.00
2024-04-06T10:02:00.604Z,26.52
2024-04-06T10:03:00.600Z,26.58
2024-04-06T10:04:00.568Z,26.18
2024-04-06T10:05:00.547Z,25.95
2024-04-06T10:06:00.539Z,26.53
2024-04-06T10:07:00.541Z,26.92
2024-04-06T10:08:00.508Z,27.30
2024-04-06T10:09:00.501Z,27.59
2024-04-06T10:10:00.501Z,27.26
2024-04-06T10:11:00.496Z,27.45
2024-04-06T10:12:00.479Z,27.49
2024-04-06T10:13:00.465Z,27.85
2024-04-06T10:14:00.440Z,27.92
2024-04-06T10:15:00.425Z,27.40
2024-04-06T10:16:00.431Z,27.36
2024-04-06T10:17:00.419Z,26.89
2024-04-06T10:18:00.385Z,27.15
2024-04-06T10:19:00.387Z,27.03
2024-04-06T10:20:01.161Z,27.39
2024-04-06T10:21:00.379Z,26.62
2024-04-06T10:22:00.354Z,26.71
2024-04-06T10:23:00.329Z,26.89
2024-04-06T10:24:00.311Z,27.35
2024-04-06T10:25:00.341Z,27.73
2024-04-06T10:26:01.473Z,27.77
2024-04-06T10:27:00.276Z,27.93
2024-04-06T10:28:00.265Z,27.67
2024-04-06T10:29:00.270Z,27.52
2024-04-06T10:30:00.407Z,27.30
2024-04-06T10:31:00.319Z,27.30
2024-04-06T10:32:00.289Z,27.59
2024-04-06T10:33:00.282Z,27.68
2024-04-06T10:34:00.268Z,27.75
2024-04-06T10:35:00.329Z,27.83
2024-04-06T10:36:00.269Z,27.47
2024-04-06T10:37:01.788Z,27.64
2024-04-06T10:38:00.159Z,27.75
2024-04-06T10:39:00.135Z,27.33
2024-04-06T10:40:00.177Z,27.78
2024-04-06T10:41:00.106Z,28.29
2024-04-06T10:42:00.096Z,28.66
2024-04-06T10:43:00.659Z,28.85
2024-04-06T10:44:00.077Z,28.45
2024-04-06T10:45:00.182Z,28.35
2024-04-06T10:46:00.047Z,28.57
2024-04-06T10:47:00.036Z,28.97
2024-04-06T10:48:00.038Z,28.84
2024-04-06T10:49:00.410Z,28.52
2024-04-06T10:50:00.051Z,28.30
2024-04-06T10:51:00.002Z,28.57
2024-04-06T10:51:59.976Z,28.82
2024-04-06T10:52:59.960Z,28.69
2024-04-06T10:53:59.962Z,28.33
2024-04-06T10:54:59.956Z,27.39
2024-04-06T10:55:59.924Z,27.60
2024-04-06T10:56:59.912Z,27.83
2024-04-06T10:57:59.908Z,28.08
2024-04-06T10:58:59.904Z,28.30
2024-04-06T10:59:59.874Z,28.20
2024-04-06T11:00:59.865Z,28.45
2024-04-06T11:01:59.850Z,27.93
2024-04-06T11:02:59.841Z,28.33
2024-04-06T11:03:59.842Z,28.41
2024-04-06T11:04:59.816Z,27.51
2024-04-06T11:05:59.807Z,27.20
2024-04-06T11:06:59.794Z,26.93
2024-04-06T11:07:59.798Z,26.89
2024-04-06T11:08:59.796Z,26.99
2024-04-06T11:09:59.751Z,26.96
2024-04-06T11:10:59.743Z,27.17
2024-04-06T11:11:59.726Z,26.85
2024-04-06T11:12:59.739Z,26.53
2024-04-06T11:13:59.704Z,26.59
2024-04-06T11:14:59.688Z,26.78
2024-04-06T11:15:59.684Z,26.88
2024-04-06T11:16:59.668Z,27.03
2024-04-06T11:17:59.667Z,26.92
2024-04-06T11:18:59.642Z,27.58
2024-04-06T11:19:59.627Z,28.14
2024-04-06T11:20:59.617Z,28.17
2024-04-06T11:21:59.628Z,28.32
2024-04-06T11:22:59.625Z,27.78
2024-04-06T11:23:59.577Z,27.93
2024-04-06T11:24:59.577Z,28.05
2024-04-06T11:25:59.551Z,27.77
2024-04-06T11:26:59.564Z,27.37
2024-04-06T11:27:59.525Z,27.75
2024-04-06T11:28:59.513Z,27.89
2024-04-06T11:30:02.663Z,27.85
2024-04-06T11:30:59.501Z,28.38
2024-04-06T11:31:59.490Z,28.67
2024-04-06T11:32:59.464Z,29.13
2024-04-06T11:33:59.449Z,28.97
2024-04-06T11:34:59.439Z,28.70
2024-04-06T11:35:59.445Z,28.76
2024-04-06T11:36:59.432Z,28.70
2024-04-06T11:37:59.395Z,28.41
2024-04-06T11:38:59.398Z,27.92
2024-04-06T11:39:59.397Z,27.80
2024-04-06T11:40:59.390Z,27.54
2024-04-06T11:41:59.369Z,27.92
2024-04-06T11:42:59.346Z,27.70
2024-04-06T11:43:59.326Z,27.86
2024-04-06T11:44:59.324Z,28.10
2024-04-06T11:45:59.315Z,27.58
2024-04-06T11:46:59.291Z,27.67
2024-04-06T11:47:59.283Z,27.80
2024-04-06T11:48:59.262Z,27.71
2024-04-06T11:49:59.252Z,27.37
2024-04-06T11:50:59.255Z,27.18
2024-04-06T11:51:59.224Z,27.15
2024-04-06T11:52:59.211Z,27.42
2024-04-06T11:53:59.202Z,27.21
2024-04-06T11:54:59.230Z,27.21
2024-04-06T11:55:59.316Z,27.35
2024-04-06T11:56:59.165Z,27.48
2024-04-06T11:57:59.155Z,27.77
2024-04-06T11:58:59.135Z,27.68
2024-04-06T11:59:59.136Z,27.37
2024-04-06T12:00:59.128Z,27.44
2024-04-06T12:01:59.114Z,27.65
2024-04-06T12:02:59.091Z,27.55
2024-04-06T12:03:59.068Z,27.40
2024-04-06T12:04:59.088Z,27.44
2024-04-06T12:05:59.503Z,27.36
2024-04-06T12:06:59.032Z,27.51
2024-04-06T12:07:59.019Z,28.08
2024-04-06T12:08:59.010Z,28.60
2024-04-06T12:09:59.010Z,28.96
2024-04-06T12:10:58.988Z,29.54
2024-04-06T12:11:59.348Z,29.65
2024-04-06T12:12:58.963Z,29.82
2024-04-06T12:13:58.959Z,30.44
2024-04-06T12:14:58.954Z,30.85
2024-04-06T12:15:58.914Z,30.83
2024-04-06T12:16:58.904Z,30.78
2024-04-06T12:17:59.568Z,30.46
2024-04-06T12:18:58.906Z,30.19
2024-04-06T12:19:58.870Z,30.39
2024-04-06T12:20:58.866Z,30.78
2024-04-06T12:21:58.846Z,30.57
2024-04-06T12:22:58.826Z,30.43
2024-04-06T12:23:58.832Z,30.87
2024-04-06T12:24:58.818Z,31.39
2024-04-06T12:25:58.798Z,31.43
2024-04-06T12:26:58.800Z,30.62
2024-04-06T12:27:58.780Z,30.21
2024-04-06T12:28:58.781Z,30.12
2024-04-06T12:29:58.775Z,30.18
2024-04-06T12:30:58.737Z,30.06
2024-04-06T12:31:58.716Z,30.08
2024-04-06T12:32:58.722Z,29.86
2024-04-06T12:33:58.707Z,30.06
2024-04-06T12:34:58.678Z,29.66
2024-04-06T12:35:58.668Z,29.81
2024-04-06T12:36:58.665Z,30.24
2024-04-06T12:37:58.659Z,30.31
2024-04-06T12:38:58.632Z,30.15
2024-04-06T12:39:58.615Z,30.19
2024-04-06T12:40:58.599Z,30.68
2024-04-06T12:41:58.591Z,30.46
2024-04-06T12:42:58.614Z,30.69
2024-04-06T12:43:58.569Z,30.63
2024-04-06T12:44:58.551Z,30.63
2024-04-06T12:45:58.540Z,30.96
2024-04-06T12:46:58.530Z,30.72
2024-04-06T12:47:58.536Z,31.20
2024-04-06T12:48:58.510Z,31.15
2024-04-06T12:49:58.491Z,31.09
2024-04-06T12:50:58.496Z,31.07
2024-04-06T12:51:58.470Z,31.00
2024-04-06T12:52:58.471Z,31.37
2024-04-06T12:53:58.443Z,31.78
2024-04-06T12:54:58.434Z,30.97
2024-04-06T12:55:58.421Z,30.91
2024-04-06T12:56:58.407Z,30.91
2024-04-06T12:57:58.414Z,31.02